sensor_id;sensor_type;location;lat;lon;timestamp;pressure;altitude;pressure_sealevel;temperature;humidity
31911;BME280;18457;52.432;16.914;2022-09-17T00:00:27;99114.34;;;11.75;77.31
31911;BME280;18457;52.432;16.914;2022-09-17T00:03:18;99114.27;;;11.73;77.38
31911;BME280;18457;52.432;16.914;2022-09-17T00:05:57;99114.27;;;11.69;77.65
31911;BME280;18457;52.432;16.914;2022-09-17T00:08:29;99110.33;;;11.72;77.37
31911;BME280;18457;52.432;16.914;2022-09-17T00:11:07;99109.54;;;11.77;77.02
31911;BME280;18457;52.432;16.914;2022-09-17T00:13:39;99107.39;;;11.70;77.23
31911;BME280;18457;52.432;16.914;2022-09-17T00:16:11;99106.73;;;11.75;77.13
31911;BME280;18457;52.432;16.914;2022-09-17T00:18:43;99109.36;;;11.84;76.48
31911;BME280;18457;52.432;16.914;2022-09-17T00:21:17;99107.17;;;11.85;76.10
31911;BME280;18457;52.432;16.914;2022-09-17T00:23:51;99099.71;;;11.89;75.97
31911;BME280;18457;52.432;16.914;2022-09-17T00:26:23;99096.77;;;11.87;75.89
31911;BME280;18457;52.432;16.914;2022-09-17T00:28:56;99093.95;;;11.88;76.01
31911;BME280;18457;52.432;16.914;2022-09-17T00:31:29;99099.30;;;11.79;76.31
31911;BME280;18457;52.432;16.914;2022-09-17T00:34:03;99104.61;;;11.85;76.22
31911;BME280;18457;52.432;16.914;2022-09-17T00:36:37;99106.89;;;11.90;75.81
31911;BME280;18457;52.432;16.914;2022-09-17T00:39:11;99109.33;;;11.82;76.19
31911;BME280;18457;52.432;16.914;2022-09-17T00:41:45;99115.41;;;11.86;76.10
31911;BME280;18457;52.432;16.914;2022-09-17T00:44:44;99115.85;;;11.88;76.11
31911;BME280;18457;52.432;16.914;2022-09-17T00:47:21;99119.21;;;11.83;76.47
31911;BME280;18457;52.432;16.914;2022-09-17T00:49:56;99116.36;;;11.85;76.59
31911;BME280;18457;52.432;16.914;2022-09-17T00:52:32;99116.36;;;11.85;76.56
31911;BME280;18457;52.432;16.914;2022-09-17T00:55:10;99113.08;;;11.93;76.30
31911;BME280;18457;52.432;16.914;2022-09-17T00:57:44;99111.73;;;11.87;76.32
31911;BME280;18457;52.432;16.914;2022-09-17T01:00:18;99107.00;;;11.99;76.15
31911;BME280;18457;52.432;16.914;2022-09-17T01:02:51;99106.71;;;11.97;76.14
31911;BME280;18457;52.432;16.914;2022-09-17T01:05:30;99107.79;;;11.97;76.31
31911;BME280;18457;52.432;16.914;2022-09-17T01:08:12;99103.42;;;11.97;76.22
31911;BME280;18457;52.432;16.914;2022-09-17T01:11:18;99101.71;;;11.96;76.48
31911;BME280;18457;52.432;16.914;2022-09-17T01:14:03;99102.48;;;11.98;76.67
31911;BME280;18457;52.432;16.914;2022-09-17T01:16:43;99098.31;;;11.95;77.41
31911;BME280;18457;52.432;16.914;2022-09-17T01:19:37;99103.63;;;11.97;77.89
31911;BME280;18457;52.432;16.914;2022-09-17T01:22:16;99100.20;;;12.04;77.87
31911;BME280;18457;52.432;16.914;2022-09-17T01:30:55;99095.95;;;11.95;79.52
31911;BME280;18457;52.432;16.914;2022-09-17T01:33:36;99098.00;;;11.98;79.93
31911;BME280;18457;52.432;16.914;2022-09-17T01:36:21;99102.52;;;11.94;80.34
31911;BME280;18457;52.432;16.914;2022-09-17T01:39:04;99099.44;;;12.01;80.22
31911;BME280;18457;52.432;16.914;2022-09-17T01:41:44;99096.53;;;12.05;80.46
31911;BME280;18457;52.432;16.914;2022-09-17T01:44:24;99098.73;;;11.87;81.72
31911;BME280;18457;52.432;16.914;2022-09-17T01:47:02;99096.28;;;11.78;82.82
31911;BME280;18457;52.432;16.914;2022-09-17T01:49:38;99097.64;;;11.87;82.57
31911;BME280;18457;52.432;16.914;2022-09-17T01:52:12;99094.79;;;11.90;82.53
31911;BME280;18457;52.432;16.914;2022-09-17T01:54:46;99103.05;;;11.80;83.61
31911;BME280;18457;52.432;16.914;2022-09-17T01:57:24;99102.70;;;11.65;84.74
31911;BME280;18457;52.432;16.914;2022-09-17T02:00:00;99101.98;;;11.80;84.46
31911;BME280;18457;52.432;16.914;2022-09-17T02:02:40;99102.63;;;11.74;84.92
31911;BME280;18457;52.432;16.914;2022-09-17T02:05:20;99103.25;;;11.76;85.20
31911;BME280;18457;52.432;16.914;2022-09-17T02:07:58;99102.41;;;11.71;85.82
31911;BME280;18457;52.432;16.914;2022-09-17T02:10:35;99101.48;;;11.71;86.53
31911;BME280;18457;52.432;16.914;2022-09-17T02:13:14;99101.25;;;11.76;87.24
31911;BME280;18457;52.432;16.914;2022-09-17T02:15:50;99099.55;;;11.59;88.80
31911;BME280;18457;52.432;16.914;2022-09-17T02:18:28;99102.06;;;11.60;89.70
31911;BME280;18457;52.432;16.914;2022-09-17T02:21:07;99101.40;;;11.66;89.39
31911;BME280;18457;52.432;16.914;2022-09-17T02:23:49;99103.58;;;11.81;88.72
31911;BME280;18457;52.432;16.914;2022-09-17T02:26:23;99103.94;;;11.87;88.62
31911;BME280;18457;52.432;16.914;2022-09-17T02:29:00;99107.91;;;11.81;89.11
31911;BME280;18457;52.432;16.914;2022-09-17T02:31:33;99103.95;;;11.84;89.47
31911;BME280;18457;52.432;16.914;2022-09-17T02:34:05;99108.13;;;11.76;90.73
31911;BME280;18457;52.432;16.914;2022-09-17T02:36:37;99107.33;;;11.81;90.15
31911;BME280;18457;52.432;16.914;2022-09-17T02:39:10;99108.17;;;11.83;90.22
31911;BME280;18457;52.432;16.914;2022-09-17T02:41:50;99107.73;;;11.73;90.80
31911;BME280;18457;52.432;16.914;2022-09-17T02:44:28;99104.32;;;11.69;92.07
31911;BME280;18457;52.432;16.914;2022-09-17T02:47:27;99105.00;;;11.74;91.19
31911;BME280;18457;52.432;16.914;2022-09-17T02:50:15;99102.41;;;11.78;91.15
31911;BME280;18457;52.432;16.914;2022-09-17T02:53:08;99103.45;;;11.69;91.76
31911;BME280;18457;52.432;16.914;2022-09-17T02:55:51;99096.77;;;11.75;91.57
31911;BME280;18457;52.432;16.914;2022-09-17T02:58:28;99099.07;;;11.80;91.15
31911;BME280;18457;52.432;16.914;2022-09-17T03:01:05;99091.20;;;11.85;90.98
31911;BME280;18457;52.432;16.914;2022-09-17T03:03:42;99093.06;;;11.91;90.63
31911;BME280;18457;52.432;16.914;2022-09-17T03:06:14;99100.13;;;11.77;91.68
31911;BME280;18457;52.432;16.914;2022-09-17T03:08:47;99096.66;;;11.85;91.60
31911;BME280;18457;52.432;16.914;2022-09-17T03:11:18;99097.05;;;11.81;91.61
31911;BME280;18457;52.432;16.914;2022-09-17T03:13:51;99097.96;;;11.66;93.17
31911;BME280;18457;52.432;16.914;2022-09-17T03:16:22;99100.05;;;11.71;92.86
31911;BME280;18457;52.432;16.914;2022-09-17T03:18:54;99102.64;;;11.81;92.45
31911;BME280;18457;52.432;16.914;2022-09-17T03:21:26;99103.95;;;11.81;92.53
31911;BME280;18457;52.432;16.914;2022-09-17T03:23:58;99099.27;;;11.72;93.65
31911;BME280;18457;52.432;16.914;2022-09-17T03:26:30;99097.15;;;11.64;94.59
31911;BME280;18457;52.432;16.914;2022-09-17T03:29:02;99100.39;;;11.53;95.91
31911;BME280;18457;52.432;16.914;2022-09-17T03:31:33;99091.85;;;11.65;94.70
31911;BME280;18457;52.432;16.914;2022-09-17T03:34:05;99096.81;;;11.37;96.32
31911;BME280;18457;52.432;16.914;2022-09-17T03:36:37;99093.69;;;11.35;97.27
31911;BME280;18457;52.432;16.914;2022-09-17T03:39:09;99099.29;;;11.42;96.68
31911;BME280;18457;52.432;16.914;2022-09-17T03:41:40;99096.14;;;11.32;97.51
31911;BME280;18457;52.432;16.914;2022-09-17T03:44:12;99106.95;;;11.29;97.94
31911;BME280;18457;52.432;16.914;2022-09-17T03:46:44;99110.23;;;11.29;98.43
31911;BME280;18457;52.432;16.914;2022-09-17T03:49:16;99112.14;;;11.27;98.69
31911;BME280;18457;52.432;16.914;2022-09-17T03:51:48;99113.40;;;11.31;98.69
31911;BME280;18457;52.432;16.914;2022-09-17T03:54:20;99112.92;;;11.22;99.37
31911;BME280;18457;52.432;16.914;2022-09-17T03:56:52;99116.48;;;11.27;99.53
31911;BME280;18457;52.432;16.914;2022-09-17T03:59:24;99114.84;;;11.38;98.52
31911;BME280;18457;52.432;16.914;2022-09-17T04:01:56;99110.05;;;11.44;98.57
31911;BME280;18457;52.432;16.914;2022-09-17T04:04:28;99112.83;;;11.43;98.17
31911;BME280;18457;52.432;16.914;2022-09-17T04:07:00;99116.05;;;11.47;97.98
31911;BME280;18457;52.432;16.914;2022-09-17T04:09:31;99121.05;;;11.44;98.14
31911;BME280;18457;52.432;16.914;2022-09-17T04:12:05;99120.15;;;11.45;97.97
31911;BME280;18457;52.432;16.914;2022-09-17T04:14:37;99122.80;;;11.53;97.58
31911;BME280;18457;52.432;16.914;2022-09-17T04:17:08;99119.25;;;11.64;96.59
31911;BME280;18457;52.432;16.914;2022-09-17T04:19:40;99118.84;;;11.57;97.09
31911;BME280;18457;52.432;16.914;2022-09-17T04:22:11;99121.02;;;11.68;96.22
31911;BME280;18457;52.432;16.914;2022-09-17T04:24:43;99120.25;;;11.69;95.78
31911;BME280;18457;52.432;16.914;2022-09-17T04:27:14;99123.98;;;11.52;96.42
31911;BME280;18457;52.432;16.914;2022-09-17T04:29:46;99127.11;;;11.47;97.16
31911;BME280;18457;52.432;16.914;2022-09-17T04:32:18;99129.64;;;11.50;97.10
31911;BME280;18457;52.432;16.914;2022-09-17T04:34:49;99127.72;;;11.56;96.78
31911;BME280;18457;52.432;16.914;2022-09-17T04:37:21;99131.27;;;11.47;96.99
31911;BME280;18457;52.432;16.914;2022-09-17T04:39:53;99130.84;;;11.44;97.38
31911;BME280;18457;52.432;16.914;2022-09-17T04:42:25;99133.69;;;11.56;96.82
31911;BME280;18457;52.432;16.914;2022-09-17T04:44:56;99131.80;;;11.58;96.51
31911;BME280;18457;52.432;16.914;2022-09-17T04:47:28;99131.96;;;11.70;95.14
31911;BME280;18457;52.432;16.914;2022-09-17T04:50:00;99137.54;;;11.71;95.03
31911;BME280;18457;52.432;16.914;2022-09-17T04:52:31;99143.15;;;11.67;95.09
31911;BME280;18457;52.432;16.914;2022-09-17T04:55:05;99145.13;;;11.63;95.65
31911;BME280;18457;52.432;16.914;2022-09-17T04:57:37;99148.76;;;11.59;95.90
31911;BME280;18457;52.432;16.914;2022-09-17T05:00:11;99150.31;;;11.57;95.91
31911;BME280;18457;52.432;16.914;2022-09-17T05:02:44;99150.36;;;11.71;95.16
31911;BME280;18457;52.432;16.914;2022-09-17T05:05:18;99153.15;;;11.54;95.76
31911;BME280;18457;52.432;16.914;2022-09-17T05:07:50;99155.30;;;11.39;96.72
31911;BME280;18457;52.432;16.914;2022-09-17T05:10:23;99161.36;;;11.49;96.73
31911;BME280;18457;52.432;16.914;2022-09-17T05:12:55;99164.11;;;11.48;96.40
31911;BME280;18457;52.432;16.914;2022-09-17T05:15:27;99164.30;;;11.55;96.05
31911;BME280;18457;52.432;16.914;2022-09-17T05:17:59;99165.73;;;11.67;95.05
31911;BME280;18457;52.432;16.914;2022-09-17T05:20:31;99168.70;;;11.54;95.64
31911;BME280;18457;52.432;16.914;2022-09-17T05:23:03;99166.64;;;11.52;96.09
31911;BME280;18457;52.432;16.914;2022-09-17T05:25:35;99178.15;;;11.46;96.49
31911;BME280;18457;52.432;16.914;2022-09-17T05:28:07;99184.00;;;11.41;96.78
31911;BME280;18457;52.432;16.914;2022-09-17T05:30:39;99185.05;;;11.49;96.62
31911;BME280;18457;52.432;16.914;2022-09-17T05:33:11;99176.28;;;11.43;96.59
31911;BME280;18457;52.432;16.914;2022-09-17T05:35:43;99186.63;;;11.50;96.43
31911;BME280;18457;52.432;16.914;2022-09-17T05:38:15;99192.52;;;11.44;96.20
31911;BME280;18457;52.432;16.914;2022-09-17T05:40:46;99197.54;;;11.41;96.80
31911;BME280;18457;52.432;16.914;2022-09-17T05:43:18;99196.92;;;11.42;96.94
31911;BME280;18457;52.432;16.914;2022-09-17T05:45:50;99197.95;;;11.56;96.16
31911;BME280;18457;52.432;16.914;2022-09-17T05:48:23;99201.66;;;11.57;95.83
31911;BME280;18457;52.432;16.914;2022-09-17T05:50:56;99202.57;;;11.49;95.99
31911;BME280;18457;52.432;16.914;2022-09-17T05:53:26;99200.20;;;11.42;95.85
31911;BME280;18457;52.432;16.914;2022-09-17T05:55:58;99206.38;;;11.41;94.97
31911;BME280;18457;52.432;16.914;2022-09-17T05:58:30;99203.87;;;11.41;94.00
31911;BME280;18457;52.432;16.914;2022-09-17T06:01:04;99203.58;;;11.43;93.62
31911;BME280;18457;52.432;16.914;2022-09-17T06:03:35;99203.33;;;11.49;93.88
31911;BME280;18457;52.432;16.914;2022-09-17T06:06:07;99202.11;;;11.56;93.47
31911;BME280;18457;52.432;16.914;2022-09-17T06:08:40;99204.02;;;11.61;92.04
31911;BME280;18457;52.432;16.914;2022-09-17T06:11:12;99216.15;;;11.53;91.92
31911;BME280;18457;52.432;16.914;2022-09-17T06:13:44;99212.74;;;11.56;91.31
31911;BME280;18457;52.432;16.914;2022-09-17T06:16:16;99216.55;;;11.64;91.21
31911;BME280;18457;52.432;16.914;2022-09-17T06:18:48;99220.52;;;11.71;90.41
31911;BME280;18457;52.432;16.914;2022-09-17T06:21:22;99223.42;;;11.79;89.84
31911;BME280;18457;52.432;16.914;2022-09-17T06:23:54;99224.63;;;11.69;90.25
31911;BME280;18457;52.432;16.914;2022-09-17T06:26:25;99228.94;;;11.77;90.06
31911;BME280;18457;52.432;16.914;2022-09-17T06:28:59;99236.06;;;11.80;89.69
31911;BME280;18457;52.432;16.914;2022-09-17T06:31:31;99235.65;;;11.77;90.02
31911;BME280;18457;52.432;16.914;2022-09-17T06:34:03;99234.67;;;11.75;90.22
31911;BME280;18457;52.432;16.914;2022-09-17T06:36:40;99238.69;;;11.78;90.48
31911;BME280;18457;52.432;16.914;2022-09-17T06:39:11;99237.02;;;11.82;90.28
31911;BME280;18457;52.432;16.914;2022-09-17T06:41:43;99235.81;;;11.89;90.07
31911;BME280;18457;52.432;16.914;2022-09-17T06:44:17;99232.51;;;11.90;90.46
31911;BME280;18457;52.432;16.914;2022-09-17T06:46:50;99234.09;;;11.98;90.33
31911;BME280;18457;52.432;16.914;2022-09-17T06:49:22;99233.33;;;11.95;90.90
31911;BME280;18457;52.432;16.914;2022-09-17T06:51:54;99232.96;;;11.99;90.92
31911;BME280;18457;52.432;16.914;2022-09-17T06:54:26;99230.17;;;11.97;91.21
31911;BME280;18457;52.432;16.914;2022-09-17T06:56:58;99230.70;;;12.00;91.25
31911;BME280;18457;52.432;16.914;2022-09-17T06:59:30;99228.44;;;11.95;91.99
31911;BME280;18457;52.432;16.914;2022-09-17T07:02:02;99230.89;;;12.08;91.85
31911;BME280;18457;52.432;16.914;2022-09-17T07:04:33;99229.67;;;11.99;93.15
31911;BME280;18457;52.432;16.914;2022-09-17T07:07:05;99232.47;;;12.01;93.61
31911;BME280;18457;52.432;16.914;2022-09-17T07:09:39;99227.19;;;12.02;94.62
31911;BME280;18457;52.432;16.914;2022-09-17T07:12:11;99232.57;;;12.10;94.27
31911;BME280;18457;52.432;16.914;2022-09-17T07:14:42;99231.79;;;12.04;95.35
31911;BME280;18457;52.432;16.914;2022-09-17T07:17:14;99232.15;;;12.12;95.63
31911;BME280;18457;52.432;16.914;2022-09-17T07:19:46;99235.94;;;12.15;95.78
31911;BME280;18457;52.432;16.914;2022-09-17T07:22:17;99231.24;;;12.15;96.38
31911;BME280;18457;52.432;16.914;2022-09-17T07:24:49;99230.12;;;12.23;96.24
31911;BME280;18457;52.432;16.914;2022-09-17T07:27:21;99227.06;;;12.30;96.14
31911;BME280;18457;52.432;16.914;2022-09-17T07:29:52;99222.60;;;12.32;96.28
31911;BME280;18457;52.432;16.914;2022-09-17T07:32:25;99222.77;;;12.40;96.07
31911;BME280;18457;52.432;16.914;2022-09-17T07:34:56;99223.80;;;12.37;95.77
31911;BME280;18457;52.432;16.914;2022-09-17T07:37:28;99220.54;;;12.44;95.97
31911;BME280;18457;52.432;16.914;2022-09-17T07:39:59;99224.28;;;12.49;95.43
31911;BME280;18457;52.432;16.914;2022-09-17T07:42:31;99224.80;;;12.57;94.91
31911;BME280;18457;52.432;16.914;2022-09-17T07:45:04;99232.15;;;12.58;94.77
31911;BME280;18457;52.432;16.914;2022-09-17T07:47:40;99231.50;;;12.64;94.41
31911;BME280;18457;52.432;16.914;2022-09-17T07:50:11;99236.63;;;12.62;94.37
31911;BME280;18457;52.432;16.914;2022-09-17T07:52:47;99235.68;;;12.70;94.09
31911;BME280;18457;52.432;16.914;2022-09-17T07:55:19;99234.15;;;12.68;94.17
31911;BME280;18457;52.432;16.914;2022-09-17T07:57:52;99234.95;;;12.70;94.46
31911;BME280;18457;52.432;16.914;2022-09-17T08:00:24;99231.56;;;12.83;93.49
31911;BME280;18457;52.432;16.914;2022-09-17T08:02:56;99238.23;;;12.81;93.85
31911;BME280;18457;52.432;16.914;2022-09-17T08:05:28;99239.14;;;12.94;92.92
31911;BME280;18457;52.432;16.914;2022-09-17T08:08:00;99241.73;;;12.93;92.69
31911;BME280;18457;52.432;16.914;2022-09-17T08:10:33;99245.48;;;12.91;92.96
31911;BME280;18457;52.432;16.914;2022-09-17T08:13:05;99248.09;;;13.00;92.34
31911;BME280;18457;52.432;16.914;2022-09-17T08:15:37;99247.41;;;12.92;93.04
31911;BME280;18457;52.432;16.914;2022-09-17T08:18:09;99248.48;;;13.03;92.41
31911;BME280;18457;52.432;16.914;2022-09-17T08:20:41;99244.39;;;13.01;92.61
31911;BME280;18457;52.432;16.914;2022-09-17T08:23:12;99239.15;;;13.25;91.48
31911;BME280;18457;52.432;16.914;2022-09-17T08:25:44;99236.81;;;13.48;90.44
31911;BME280;18457;52.432;16.914;2022-09-17T08:28:22;99237.14;;;13.52;89.97
31911;BME280;18457;52.432;16.914;2022-09-17T08:30:58;99239.40;;;13.44;90.49
31911;BME280;18457;52.432;16.914;2022-09-17T08:33:32;99243.73;;;13.34;91.01
31911;BME280;18457;52.432;16.914;2022-09-17T08:36:06;99242.87;;;13.37;91.02
31911;BME280;18457;52.432;16.914;2022-09-17T08:38:39;99244.20;;;13.36;91.02
31911;BME280;18457;52.432;16.914;2022-09-17T08:41:25;99245.84;;;13.52;90.26
31911;BME280;18457;52.432;16.914;2022-09-17T08:44:12;99249.71;;;13.54;89.99
31911;BME280;18457;52.432;16.914;2022-09-17T08:46:48;99251.09;;;13.62;89.59
31911;BME280;18457;52.432;16.914;2022-09-17T08:49:28;99248.77;;;13.68;88.82
31911;BME280;18457;52.432;16.914;2022-09-17T08:55:25;99249.52;;;13.77;87.49
31911;BME280;18457;52.432;16.914;2022-09-17T08:58:06;99252.06;;;13.84;86.20
31911;BME280;18457;52.432;16.914;2022-09-17T09:00:48;99246.99;;;13.96;86.23
31911;BME280;18457;52.432;16.914;2022-09-17T09:03:31;99249.33;;;14.09;85.53
31911;BME280;18457;52.432;16.914;2022-09-17T09:06:10;99248.72;;;14.27;85.00
31911;BME280;18457;52.432;16.914;2022-09-17T09:08:45;99252.11;;;14.37;84.24
31911;BME280;18457;52.432;16.914;2022-09-17T09:11:22;99253.41;;;14.37;83.95
31911;BME280;18457;52.432;16.914;2022-09-17T09:14:04;99249.99;;;14.45;83.58
31911;BME280;18457;52.432;16.914;2022-09-17T09:16:40;99248.75;;;14.51;82.84
31911;BME280;18457;52.432;16.914;2022-09-17T09:19:21;99252.20;;;14.54;82.23
31911;BME280;18457;52.432;16.914;2022-09-17T09:22:02;99259.38;;;14.62;82.13
31911;BME280;18457;52.432;16.914;2022-09-17T09:24:40;99262.16;;;14.57;81.47
31911;BME280;18457;52.432;16.914;2022-09-17T09:27:17;99256.39;;;14.72;80.29
31911;BME280;18457;52.432;16.914;2022-09-17T09:30:03;99256.16;;;14.82;79.81
31911;BME280;18457;52.432;16.914;2022-09-17T09:32:47;99265.55;;;14.77;79.44
31911;BME280;18457;52.432;16.914;2022-09-17T09:35:22;99272.52;;;14.76;78.76
31911;BME280;18457;52.432;16.914;2022-09-17T09:37:58;99273.39;;;14.86;78.27
31911;BME280;18457;52.432;16.914;2022-09-17T09:40:36;99273.30;;;15.00;77.62
31911;BME280;18457;52.432;16.914;2022-09-17T09:43:18;99278.98;;;15.23;76.71
31911;BME280;18457;52.432;16.914;2022-09-17T09:46:02;99275.55;;;15.25;76.20
31911;BME280;18457;52.432;16.914;2022-09-17T09:48:48;99267.16;;;15.34;76.45
31911;BME280;18457;52.432;16.914;2022-09-17T09:51:30;99266.61;;;15.28;75.74
31911;BME280;18457;52.432;16.914;2022-09-17T09:54:15;99267.73;;;15.25;75.02
31911;BME280;18457;52.432;16.914;2022-09-17T09:56:55;99270.45;;;15.52;74.86
31911;BME280;18457;52.432;16.914;2022-09-17T09:59:27;99278.86;;;15.66;73.87
31911;BME280;18457;52.432;16.914;2022-09-17T10:01:59;99276.52;;;15.71;72.21
31911;BME280;18457;52.432;16.914;2022-09-17T10:04:31;99271.56;;;15.91;71.73
31911;BME280;18457;52.432;16.914;2022-09-17T10:07:04;99275.32;;;15.90;72.21
31911;BME280;18457;52.432;16.914;2022-09-17T10:09:40;99275.91;;;15.75;72.90
31911;BME280;18457;52.432;16.914;2022-09-17T10:12:18;99270.92;;;16.18;71.48
31911;BME280;18457;52.432;16.914;2022-09-17T10:14:51;99270.49;;;16.33;70.12
31911;BME280;18457;52.432;16.914;2022-09-17T10:17:24;99274.45;;;16.19;70.08
31911;BME280;18457;52.432;16.914;2022-09-17T10:20:17;99266.09;;;16.41;70.24
31911;BME280;18457;52.432;16.914;2022-09-17T10:22:53;99269.08;;;16.73;70.17
31911;BME280;18457;52.432;16.914;2022-09-17T10:25:32;99275.75;;;16.80;68.96
31911;BME280;18457;52.432;16.914;2022-09-17T10:28:16;99272.90;;;17.03;67.84
31911;BME280;18457;52.432;16.914;2022-09-17T10:30:57;99278.45;;;17.38;66.95
31911;BME280;18457;52.432;16.914;2022-09-17T10:33:34;99275.55;;;17.48;64.77
31911;BME280;18457;52.432;16.914;2022-09-17T10:36:11;99276.34;;;17.63;63.58
31911;BME280;18457;52.432;16.914;2022-09-17T10:38:46;99275.19;;;17.61;63.43
31911;BME280;18457;52.432;16.914;2022-09-17T10:41:20;99275.77;;;17.29;63.92
31911;BME280;18457;52.432;16.914;2022-09-17T10:43:54;99276.83;;;17.04;65.45
31911;BME280;18457;52.432;16.914;2022-09-17T10:46:28;99281.79;;;16.80;66.27
31911;BME280;18457;52.432;16.914;2022-09-17T10:49:09;99280.95;;;16.60;66.47
31911;BME280;18457;52.432;16.914;2022-09-17T10:51:42;99280.47;;;16.50;66.87
31911;BME280;18457;52.432;16.914;2022-09-17T10:54:39;99278.92;;;16.51;66.83
31911;BME280;18457;52.432;16.914;2022-09-17T10:57:22;99274.24;;;16.53;66.50
31911;BME280;18457;52.432;16.914;2022-09-17T11:00:06;99277.65;;;16.66;65.35
31911;BME280;18457;52.432;16.914;2022-09-17T11:03:00;99276.94;;;16.87;63.52
31911;BME280;18457;52.432;16.914;2022-09-17T11:05:44;99279.58;;;16.80;62.74
31911;BME280;18457;52.432;16.914;2022-09-17T11:08:23;99277.91;;;17.17;61.49
31911;BME280;18457;52.432;16.914;2022-09-17T11:11:08;99271.31;;;17.23;60.38
31911;BME280;18457;52.432;16.914;2022-09-17T11:13:50;99268.95;;;17.75;58.96
31911;BME280;18457;52.432;16.914;2022-09-17T11:16:37;99274.27;;;17.84;57.69
31911;BME280;18457;52.432;16.914;2022-09-17T11:19:21;99277.77;;;18.11;57.94
31911;BME280;18457;52.432;16.914;2022-09-17T11:21:58;99278.86;;;18.11;58.71
31911;BME280;18457;52.432;16.914;2022-09-17T11:24:54;99267.45;;;18.47;58.71
31911;BME280;18457;52.432;16.914;2022-09-17T11:27:40;99266.92;;;18.66;58.33
31911;BME280;18457;52.432;16.914;2022-09-17T11:30:18;99270.61;;;17.84;60.83
31911;BME280;18457;52.432;16.914;2022-09-17T11:33:11;99263.23;;;18.10;61.26
31911;BME280;18457;52.432;16.914;2022-09-17T11:35:52;99261.41;;;18.10;61.29
31911;BME280;18457;52.432;16.914;2022-09-17T11:38:33;99260.48;;;18.00;62.25
31911;BME280;18457;52.432;16.914;2022-09-17T11:41:13;99264.19;;;17.46;62.78
31911;BME280;18457;52.432;16.914;2022-09-17T11:43:49;99262.16;;;16.89;61.21
31911;BME280;18457;52.432;16.914;2022-09-17T11:46:26;99262.33;;;16.82;63.40
31911;BME280;18457;52.432;16.914;2022-09-17T11:49:03;99261.18;;;16.90;65.10
31911;BME280;18457;52.432;16.914;2022-09-17T11:51:38;99267.68;;;17.28;65.22
31911;BME280;18457;52.432;16.914;2022-09-17T11:54:19;99263.23;;;17.42;65.84
31911;BME280;18457;52.432;16.914;2022-09-17T11:56:56;99266.94;;;17.12;66.27
31911;BME280;18457;52.432;16.914;2022-09-17T11:59:34;99265.14;;;17.30;66.20
31911;BME280;18457;52.432;16.914;2022-09-17T12:02:18;99263.90;;;17.19;67.20
31911;BME280;18457;52.432;16.914;2022-09-17T12:04:56;99262.73;;;17.57;66.01
31911;BME280;18457;52.432;16.914;2022-09-17T12:07:38;99267.65;;;17.82;64.71
31911;BME280;18457;52.432;16.914;2022-09-17T12:10:23;99262.65;;;17.81;64.55
31911;BME280;18457;52.432;16.914;2022-09-17T12:13:01;99257.94;;;17.68;64.96
31911;BME280;18457;52.432;16.914;2022-09-17T12:15:37;99263.38;;;18.08;63.84
31911;BME280;18457;52.432;16.914;2022-09-17T12:18:20;99257.67;;;18.28;62.52
31911;BME280;18457;52.432;16.914;2022-09-17T12:21:05;99258.28;;;18.20;62.22
31911;BME280;18457;52.432;16.914;2022-09-17T12:23:41;99259.87;;;17.67;62.60
31911;BME280;18457;52.432;16.914;2022-09-17T12:26:24;99257.11;;;17.64;62.01
31911;BME280;18457;52.432;16.914;2022-09-17T12:29:05;99254.63;;;17.98;61.17
31911;BME280;18457;52.432;16.914;2022-09-17T12:31:49;99248.21;;;17.98;61.04
31911;BME280;18457;52.432;16.914;2022-09-17T12:34:30;99245.64;;;17.83;61.03
31911;BME280;18457;52.432;16.914;2022-09-17T12:37:12;99244.77;;;17.88;60.54
31911;BME280;18457;52.432;16.914;2022-09-17T12:40:15;99240.11;;;17.81;60.99
31911;BME280;18457;52.432;16.914;2022-09-17T12:43:11;99228.70;;;17.95;60.46
31911;BME280;18457;52.432;16.914;2022-09-17T12:46:02;99218.56;;;18.11;60.23
31911;BME280;18457;52.432;16.914;2022-09-17T12:48:52;99211.01;;;18.07;60.26
31911;BME280;18457;52.432;16.914;2022-09-17T12:51:45;99208.92;;;17.98;61.32
31911;BME280;18457;52.432;16.914;2022-09-17T12:54:31;99215.42;;;17.94;61.63
31911;BME280;18457;52.432;16.914;2022-09-17T12:57:23;99218.60;;;17.76;62.13
31911;BME280;18457;52.432;16.914;2022-09-17T12:59:57;99218.51;;;17.49;63.62
31911;BME280;18457;52.432;16.914;2022-09-17T13:02:40;99219.65;;;17.67;62.09
31911;BME280;18457;52.432;16.914;2022-09-17T13:05:37;99227.27;;;17.70;61.05
31911;BME280;18457;52.432;16.914;2022-09-17T13:15:05;99236.79;;;17.47;63.20
31911;BME280;18457;52.432;16.914;2022-09-17T13:17:52;99245.14;;;17.34;62.34
31911;BME280;18457;52.432;16.914;2022-09-17T13:20:56;99250.70;;;17.38;61.59
31911;BME280;18457;52.432;16.914;2022-09-17T13:23:38;99252.38;;;17.48;59.81
31911;BME280;18457;52.432;16.914;2022-09-17T13:26:12;99247.98;;;17.30;58.39
31911;BME280;18457;52.432;16.914;2022-09-17T13:28:47;99249.46;;;17.25;58.77
31911;BME280;18457;52.432;16.914;2022-09-17T13:31:45;99252.00;;;17.07;63.13
31911;BME280;18457;52.432;16.914;2022-09-17T13:34:29;99251.27;;;17.02;66.06
31911;BME280;18457;52.432;16.914;2022-09-17T13:37:02;99247.41;;;16.73;66.54
31911;BME280;18457;52.432;16.914;2022-09-17T13:39:34;99246.80;;;16.58;65.55
31911;BME280;18457;52.432;16.914;2022-09-17T13:42:11;99255.36;;;16.27;63.78
31911;BME280;18457;52.432;16.914;2022-09-17T13:44:46;99246.84;;;16.10;64.52
31911;BME280;18457;52.432;16.914;2022-09-17T13:47:23;99251.50;;;15.98;65.76
31911;BME280;18457;52.432;16.914;2022-09-17T13:49:59;99252.39;;;15.75;67.69
31911;BME280;18457;52.432;16.914;2022-09-17T13:52:41;99245.03;;;15.68;69.30
31911;BME280;18457;52.432;16.914;2022-09-17T13:55:30;99244.34;;;15.61;70.55